Time;durP1;ratioP1;P1;durP2;ratioP2;P2;SDS_P1;SDS_P2;PMS_P1;PMS_P2;Temp;Humidity;BMP_temperature;BMP_pressure;BME280_temperature;BME280_humidity;BME280_pressure;Samples;Min_cycle;Max_cycle;Signal;HPM_P1;HPM_P2
2024/03/05 00:01:59;;;;;;;;;;;;;;;17.40;47.69;100481.56;5036678;28;1907;-47
2024/03/05 00:04:26;;;;;;;;;;;;;;;17.19;47.87;100477.28;5036830;28;1067;-47
2024/03/05 00:06:51;;;;;;;;;;;;;;;16.43;49.91;100477.38;5036844;28;1035;-50
2024/03/05 00:09:17;;;;;;;;;;;;;;;16.11;50.84;100480.47;5036946;28;1214;-49
2024/03/05 00:11:43;;;;;;;;;;;;;;;15.90;51.26;100472.28;5036159;28;1175;-47
2024/03/05 00:14:08;;;;;;;;;;;;;;;15.67;51.84;100468.13;5037359;28;1179;-46
2024/03/05 00:16:34;;;;;;;;;;;;;;;15.81;51.75;100460.22;5036112;28;1154;-47
2024/03/05 00:19:00;;;;;;;;;;;;;;;17.33;48.02;100463.72;5036833;28;1103;-45
2024/03/05 00:21:25;;;;;;;;;;;;;;;17.04;48.39;100453.47;5036215;28;1902;-48
2024/03/05 00:23:51;;;;;;;;;;;;;;;16.38;50.16;100453.50;5036129;28;877;-45
2024/03/05 00:26:18;;;;;;;;;;;;;;;16.04;50.96;100447.84;5036179;28;1071;-48
2024/03/05 00:28:44;;;;;;;;;;;;;;;15.81;51.60;100441.03;5036312;28;1239;-49
2024/03/05 00:31:09;;;;;;;;;;;;;;;16.12;50.82;100440.94;5023521;28;1214;-45
2024/03/05 00:33:35;;;;;;;;;;;;;;;17.50;47.33;100446.81;5036414;28;1028;-49
2024/03/05 00:36:03;;;;;;;;;;;;;;;16.73;49.13;100446.22;5029742;28;1079;-47
2024/03/05 00:38:32;;;;;;;;;;;;;;;16.22;50.56;100436.25;5016844;28;1127;-47
2024/03/05 00:40:57;;;;;;;;;;;;;;;15.88;51.41;100430.63;5031750;28;1950;-47
2024/03/05 00:43:23;;;;;;;;;;;;;;;15.76;51.67;100427.31;5036159;28;1102;-46
2024/03/05 00:45:49;;;;;;;;;;;;;;;15.52;52.33;100425.13;5022853;28;1055;-48
2024/03/05 00:48:14;;;;;;;;;;;;;;;17.07;48.48;100429.00;5036336;28;880;-50
2024/03/05 00:50:40;;;;;;;;;;;;;;;17.48;47.49;100422.38;5034826;28;1047;-47
2024/03/05 00:53:05;;;;;;;;;;;;;;;16.52;49.70;100417.22;5024356;28;1086;-45
2024/03/05 00:55:31;;;;;;;;;;;;;;;16.17;50.52;100421.75;5036068;28;1489;-47
2024/03/05 00:57:56;;;;;;;;;;;;;;;15.85;51.43;100425.66;5036018;28;1094;-47
2024/03/05 01:00:24;;;;;;;;;;;;;;;15.77;51.73;100427.03;5035788;28;1047;-48
2024/03/05 01:02:50;;;;;;;;;;;;;;;17.23;48.16;100426.16;5036345;28;1975;-48
2024/03/05 01:05:16;;;;;;;;;;;;;;;17.00;48.45;100428.50;5037797;28;1218;-49
2024/03/05 01:07:41;;;;;;;;;;;;;;;16.35;50.24;100418.38;5039887;28;1214;-50
2024/03/05 01:10:07;;;;;;;;;;;;;;;16.03;51.15;100408.63;5039938;28;1137;-48
2024/03/05 01:12:32;;;;;;;;;;;;;;;15.75;51.54;100410.03;5039833;28;884;-49
2024/03/05 01:14:58;;;;;;;;;;;;;;;15.79;51.91;100410.31;5039678;28;1215;-49
2024/03/05 01:17:24;;;;;;;;;;;;;;;17.35;47.87;100410.13;5040109;28;1087;-49
2024/03/05 01:19:49;;;;;;;;;;;;;;;16.90;48.50;100403.84;5040093;28;1103;-50
2024/03/05 01:22:15;;;;;;;;;;;;;;;16.28;50.14;100409.63;5039925;28;1977;-51
2024/03/05 01:24:41;;;;;;;;;;;;;;;16.03;51.01;100405.91;5036512;28;1031;-48
2024/03/05 01:27:06;;;;;;;;;;;;;;;15.74;51.43;100409.22;5040134;28;1114;-50
2024/03/05 01:29:32;;;;;;;;;;;;;;;16.23;50.89;100409.66;5039815;28;1166;-49
2024/03/05 01:32:01;;;;;;;;;;;;;;;17.56;47.37;100408.00;5039596;28;1137;-47
2024/03/05 01:34:30;;;;;;;;;;;;;;;16.77;48.97;100397.88;5038950;28;1171;-49
2024/03/05 01:36:57;;;;;;;;;;;;;;;16.21;50.53;100398.94;5039016;28;857;-49
2024/03/05 01:39:26;;;;;;;;;;;;;;;15.92;51.06;100387.81;5039524;28;1230;-48
2024/03/05 01:41:52;;;;;;;;;;;;;;;15.73;51.39;100396.59;5039690;28;1902;-48
2024/03/05 01:44:19;;;;;;;;;;;;;;;17.02;48.60;100403.50;5039317;28;1140;-50
2024/03/05 01:46:45;;;;;;;;;;;;;;;17.33;47.57;100398.59;5038819;28;1679;-48
2024/03/05 01:49:11;;;;;;;;;;;;;;;16.43;49.77;100387.63;5038619;28;1123;-49
2024/03/05 01:51:37;;;;;;;;;;;;;;;16.04;50.85;100387.50;5039221;28;1144;-48
2024/03/05 01:54:03;;;;;;;;;;;;;;;15.83;51.59;100390.31;5038204;28;1167;-51
2024/03/05 01:56:28;;;;;;;;;;;;;;;15.65;51.63;100388.13;5037591;28;1116;-48
2024/03/05 01:58:54;;;;;;;;;;;;;;;16.05;51.27;100381.75;5022780;28;1099;-48
2024/03/05 02:01:21;;;;;;;;;;;;;;;17.47;47.67;100382.25;5033032;28;1980;-45
2024/03/05 02:03:46;;;;;;;;;;;;;;;17.11;48.29;100385.31;5037653;28;1176;-52
2024/03/05 02:06:12;;;;;;;;;;;;;;;16.30;50.25;100385.50;5038985;28;1131;-49
2024/03/05 02:08:38;;;;;;;;;;;;;;;16.03;51.15;100377.63;5038710;28;1071;-47
2024/03/05 02:11:03;;;;;;;;;;;;;;;15.85;51.30;100376.31;5039079;28;1143;-49
2024/03/05 02:13:29;;;;;;;;;;;;;;;15.63;51.78;100374.69;5035997;28;1397;-48
2024/03/05 02:15:55;;;;;;;;;;;;;;;16.37;50.38;100377.78;5059072;28;1494;-47
2024/03/05 02:18:20;;;;;;;;;;;;;;;17.61;47.30;100372.22;5036456;28;1155;-48
2024/03/05 02:20:45;;;;;;;;;;;;;;;16.81;48.87;100365.16;5027788;28;1984;-45
2024/03/05 02:23:11;;;;;;;;;;;;;;;16.25;50.35;100360.81;5025536;28;1126;-50
2024/03/05 02:25:37;;;;;;;;;;;;;;;15.95;51.16;100368.06;5038437;28;909;-50
2024/03/05 02:28:03;;;;;;;;;;;;;;;15.76;51.70;100361.50;5037648;28;1203;-49
2024/03/05 02:30:31;;;;;;;;;;;;;;;15.59;51.91;100365.38;5038532;28;1226;-49
2024/03/05 02:32:57;;;;;;;;;;;;;;;16.57;49.87;100362.31;5038534;28;1094;-49
2024/03/05 02:35:22;;;;;;;;;;;;;;;17.72;46.94;100361.91;5038129;28;936;-45
2024/03/05 02:37:48;;;;;;;;;;;;;;;16.89;48.67;100353.59;5037944;28;1234;-48
2024/03/05 02:40:13;;;;;;;;;;;;;;;16.35;50.08;100351.72;5038296;28;1302;-49
2024/03/05 02:42:40;;;;;;;;;;;;;;;16.00;51.12;100348.84;5024753;28;1984;-50
2024/03/05 02:45:05;;;;;;;;;;;;;;;15.78;51.49;100351.91;5038074;28;1175;-47
2024/03/05 02:47:35;;;;;;;;;;;;;;;15.89;51.46;100356.31;5038081;28;1324;-48
2024/03/05 02:50:03;;;;;;;;;;;;;;;17.44;47.73;100366.34;5028338;28;889;-48
2024/03/05 02:52:30;;;;;;;;;;;;;;;16.69;49.14;100360.03;5021617;28;1060;-47
2024/03/05 02:54:55;;;;;;;;;;;;;;;16.11;50.64;100357.03;5038385;28;1248;-48
2024/03/05 02:57:21;;;;;;;;;;;;;;;15.88;51.23;100353.84;5024643;28;1221;-49
2024/03/05 02:59:46;;;;;;;;;;;;;;;15.72;51.75;100356.59;5037723;28;1130;-52
2024/03/05 03:02:12;;;;;;;;;;;;;;;15.72;51.98;100350.28;5033833;28;1901;-50
2024/03/05 03:04:37;;;;;;;;;;;;;;;17.26;48.10;100351.38;5028390;28;1063;-48
2024/03/05 03:07:03;;;;;;;;;;;;;;;17.01;48.46;100346.91;5037329;28;1098;-50
2024/03/05 03:09:28;;;;;;;;;;;;;;;16.23;50.34;100338.34;5037502;28;1113;-49
2024/03/05 03:11:55;;;;;;;;;;;;;;;16.01;51.19;100335.97;5037364;28;1043;-47
2024/03/05 03:14:21;;;;;;;;;;;;;;;15.78;51.57;100334.63;5037491;28;860;-47
2024/03/05 03:16:47;;;;;;;;;;;;;;;15.56;52.22;100333.06;5037620;28;1174;-46
2024/03/05 03:19:12;;;;;;;;;;;;;;;15.53;52.38;100339.09;5037249;28;1063;-51
2024/03/05 03:21:38;;;;;;;;;;;;;;;17.16;48.74;100348.75;5037250;28;1963;-49
2024/03/05 03:24:03;;;;;;;;;;;;;;;17.35;47.77;100340.56;5037523;28;1083;-46
2024/03/05 03:26:29;;;;;;;;;;;;;;;16.42;50.16;100349.47;5037171;28;912;-45
2024/03/05 03:28:55;;;;;;;;;;;;;;;16.14;50.74;100351.00;5036685;28;1131;-47
2024/03/05 03:31:25;;;;;;;;;;;;;;;15.87;51.61;100353.00;5037018;28;1115;-49
2024/03/05 03:33:51;;;;;;;;;;;;;;;15.91;51.59;100353.28;5037173;28;1138;-47
2024/03/05 03:36:23;;;;;;;;;;;;;;;17.46;47.88;100355.88;5034843;28;1047;-47
2024/03/05 03:38:49;;;;;;;;;;;;;;;16.71;49.43;100357.00;5026968;28;1139;-50
2024/03/05 03:41:14;;;;;;;;;;;;;;;16.23;50.65;100349.31;5023944;28;1961;-47
2024/03/05 03:43:40;;;;;;;;;;;;;;;15.86;51.69;100359.56;5037547;28;1206;-52
2024/03/05 03:46:05;;;;;;;;;;;;;;;15.76;51.87;100356.03;5024234;28;1147;-50
2024/03/05 03:48:31;;;;;;;;;;;;;;;15.63;52.08;100351.97;5036367;28;1375;-48
2024/03/05 03:50:56;;;;;;;;;;;;;;;16.89;49.14;100361.03;5024420;28;1101;-50
2024/03/05 03:53:22;;;;;;;;;;;;;;;17.61;47.35;100354.91;5036868;28;1071;-51
2024/03/05 03:55:48;;;;;;;;;;;;;;;16.53;49.84;100364.78;5036655;28;1140;-47
2024/03/05 03:58:14;;;;;;;;;;;;;;;16.22;50.49;100358.63;5037093;28;1096;-51
2024/03/05 04:00:40;;;;;;;;;;;;;;;15.90;51.40;100362.59;5034121;28;1961;-49
2024/03/05 04:03:06;;;;;;;;;;;;;;;15.66;51.86;100356.88;5036714;28;1067;-48
2024/03/05 04:05:32;;;;;;;;;;;;;;;16.59;49.81;100357.34;5033806;28;1126;-47
2024/03/05 04:07:58;;;;;;;;;;;;;;;17.70;47.26;100372.41;5026845;28;1122;-52
2024/03/05 04:10:24;;;;;;;;;;;;;;;16.68;49.33;100355.63;5036619;28;1159;-47
2024/03/05 04:12:49;;;;;;;;;;;;;;;16.20;50.64;100358.09;5036261;28;1341;-48
2024/03/05 04:15:18;;;;;;;;;;;;;;;15.94;51.38;100351.91;5036533;28;1099;-47
2024/03/05 04:17:44;;;;;;;;;;;;;;;15.70;51.74;100345.06;5026624;28;1238;-47
2024/03/05 04:20:10;;;;;;;;;;;;;;;16.37;50.75;100350.34;5031618;28;1042;-49
2024/03/05 04:22:39;;;;;;;;;;;;;;;17.63;47.21;100349.94;5033361;28;2776;-53
2024/03/05 04:25:05;;;;;;;;;;;;;;;16.99;48.72;100347.22;5035818;28;1864;-54
2024/03/05 04:27:30;;;;;;;;;;;;;;;16.26;50.57;100337.78;5036259;28;2090;-54
2024/03/05 04:29:59;;;;;;;;;;;;;;;16.05;51.14;100345.28;5035820;28;2358;-53
2024/03/05 04:32:26;;;;;;;;;;;;;;;15.81;51.78;100334.09;5033393;28;2165;-54
2024/03/05 04:35:00;;;;;;;;;;;;;;;15.67;51.84;100333.84;5028104;28;1987;-53
2024/03/05 04:37:29;;;;;;;;;;;;;;;16.22;50.95;100336.69;5036048;28;1117;-55
2024/03/05 04:39:55;;;;;;;;;;;;;;;17.54;47.51;100337.94;5034786;28;1234;-48
2024/03/05 04:42:22;;;;;;;;;;;;;;;16.79;49.14;100342.66;5035534;28;1917;-56
2024/03/05 04:44:47;;;;;;;;;;;;;;;16.23;50.52;100332.84;5036333;28;1122;-53
2024/03/05 04:47:13;;;;;;;;;;;;;;;15.84;51.71;100333.56;5035969;28;1321;-51
2024/03/05 04:49:38;;;;;;;;;;;;;;;15.68;52.13;100344.53;5035348;28;1283;-53
2024/03/05 04:52:04;;;;;;;;;;;;;;;15.49;52.55;100335.28;5036172;28;881;-54
2024/03/05 04:54:30;;;;;;;;;;;;;;;16.89;49.20;100344.56;5036188;28;1059;-51
2024/03/05 04:56:59;;;;;;;;;;;;;;;17.65;47.13;100333.97;5035803;28;1108;-56
2024/03/05 04:59:25;;;;;;;;;;;;;;;16.84;49.31;100341.81;5035857;28;1055;-57
2024/03/05 05:01:50;;;;;;;;;;;;;;;16.28;50.48;100342.97;5035364;28;1945;-54
2024/03/05 05:04:16;;;;;;;;;;;;;;;15.89;51.67;100344.50;5035866;28;2681;-53
2024/03/05 05:06:42;;;;;;;;;;;;;;;15.73;51.81;100346.44;5035263;28;1484;-52
2024/03/05 05:09:07;;;;;;;;;;;;;;;16.27;51.03;100344.06;5035926;28;1008;-52
2024/03/05 05:11:33;;;;;;;;;;;;;;;17.58;47.44;100345.28;5031194;28;1047;-53
2024/03/05 05:13:59;;;;;;;;;;;;;;;17.57;47.54;100343.69;5026220;28;1056;-54
2024/03/05 05:16:24;;;;;;;;;;;;;;;16.43;50.01;100349.19;5035935;28;1012;-52
2024/03/05 05:18:50;;;;;;;;;;;;;;;16.13;49.91;100343.84;5035699;28;1116;-54
2024/03/05 05:21:16;;;;;;;;;;;;;;;15.92;49.37;100352.16;5036074;28;1906;-53
2024/03/05 05:23:42;;;;;;;;;;;;;;;16.63;50.21;100350.19;5035413;28;1024;-53
2024/03/05 05:26:08;;;;;;;;;;;;;;;16.69;49.99;100343.56;5035785;28;1028;-53
2024/03/05 05:28:34;;;;;;;;;;;;;;;16.13;50.13;100341.13;5035851;28;1131;-55
2024/03/05 05:30:59;;;;;;;;;;;;;;;15.86;49.37;100350.53;5035766;28;1070;-55
2024/03/05 05:33:25;;;;;;;;;;;;;;;16.63;50.39;100346.63;5022380;28;1222;-54
2024/03/05 05:35:50;;;;;;;;;;;;;;;16.45;50.61;100348.09;5030707;28;2678;-54
2024/03/05 05:38:16;;;;;;;;;;;;;;;15.96;50.16;100342.28;5034849;28;1003;-55
2024/03/05 05:40:43;;;;;;;;;;;;;;;15.78;49.52;100353.81;5035644;28;1023;-55
2024/03/05 05:43:09;;;;;;;;;;;;;;;17.20;49.23;100347.06;5035372;28;1098;-53
2024/03/05 05:45:35;;;;;;;;;;;;;;;16.16;50.42;100348.78;5035603;28;1115;-54
2024/03/05 05:48:02;;;;;;;;;;;;;;;16.97;49.94;100354.94;5022105;28;1052;-53
2024/03/05 05:50:31;;;;;;;;;;;;;;;17.01;49.78;100353.25;5032071;28;1059;-54
2024/03/05 05:52:57;;;;;;;;;;;;;;;16.34;49.95;100350.91;5031473;28;1160;-54
2024/03/05 05:55:24;;;;;;;;;;;;;;;17.55;48.78;100358.81;5030833;28;1112;-55
2024/03/05 05:57:51;;;;;;;;;;;;;;;16.60;49.82;100354.31;5038667;28;1043;-55
2024/03/05 06:00:24;;;;;;;;;;;;;;;16.20;49.79;100355.34;5038449;28;1477;-55
2024/03/05 06:02:53;;;;;;;;;;;;;;;16.71;50.32;100359.75;5029923;28;1906;-57
2024/03/05 06:05:26;;;;;;;;;;;;;;;16.17;49.81;100361.41;5026839;28;2414;-56
2024/03/05 06:07:51;;;;;;;;;;;;;;;17.35;49.49;100366.16;5038858;28;1051;-52
2024/03/05 06:10:18;;;;;;;;;;;;;;;16.68;50.08;100358.38;5038823;28;1031;-53
2024/03/05 06:12:44;;;;;;;;;;;;;;;16.25;49.83;100358.06;5038635;28;1207;-52
2024/03/05 06:15:10;;;;;;;;;;;;;;;16.06;49.13;100361.44;5038232;28;1091;-54
2024/03/05 06:17:35;;;;;;;;;;;;;;;17.15;49.84;100363.56;5038653;28;1361;-54
2024/03/05 06:20:01;;;;;;;;;;;;;;;16.30;50.51;100365.44;5026036;28;1293;-52
2024/03/05 06:22:28;;;;;;;;;;;;;;;17.15;49.81;100363.56;5029841;28;1905;-54
2024/03/05 06:24:54;;;;;;;;;;;;;;;17.36;49.10;100365.06;5032081;28;1313;-55
2024/03/05 06:27:19;;;;;;;;;;;;;;;16.60;49.97;100356.25;5023451;28;1168;-54
2024/03/05 06:29:45;;;;;;;;;;;;;;;16.33;49.11;100362.97;5034361;28;1385;-56
2024/03/05 06:32:11;;;;;;;;;;;;;;;16.84;50.03;100369.28;5038145;28;1083;-55
2024/03/05 06:34:36;;;;;;;;;;;;;;;16.53;50.04;100362.03;5037025;28;2602;-53
2024/03/05 06:37:02;;;;;;;;;;;;;;;16.21;49.69;100370.72;5038386;28;1417;-53
2024/03/05 06:39:30;;;;;;;;;;;;;;;17.14;49.62;100361.91;5037879;28;1193;-54
2024/03/05 06:41:59;;;;;;;;;;;;;;;16.39;50.00;100364.59;5037838;28;1910;-54
2024/03/05 06:44:25;;;;;;;;;;;;;;;16.94;50.08;100369.22;5059431;28;1209;-52
2024/03/05 06:46:54;;;;;;;;;;;;;;;16.80;49.90;100369.00;5036047;28;1000;-53
2024/03/05 06:49:31;;;;;;;;;;;;;;;16.36;49.56;100365.16;5038203;28;1074;-53
2024/03/05 06:56:39;;;;;;;;;;;;;;;17.63;48.61;100369.19;5037542;28;1079;-54
2024/03/05 06:57:27;;;;;;;;;;;;;;;16.25;49.82;100358.06;5037752;28;1179;-52
2024/03/05 06:59:52;;;;;;;;;;;;;;;17.82;48.07;100366.50;5025057;28;1095;-53
2024/03/05 07:02:18;;;;;;;;;;;;;;;16.67;49.85;100359.47;5036712;28;1906;-54
2024/03/05 07:04:45;;;;;;;;;;;;;;;16.40;49.01;100359.94;5027793;28;2723;-53
2024/03/05 07:07:11;;;;;;;;;;;;;;;17.05;49.61;100354.28;5037934;28;1062;-54
2024/03/05 07:09:37;;;;;;;;;;;;;;;16.41;49.90;100361.53;5037399;28;1090;-52
2024/03/05 07:12:03;;;;;;;;;;;;;;;17.42;49.21;100368.56;5037669;28;1091;-53
2024/03/05 07:14:29;;;;;;;;;;;;;;;17.15;49.41;100358.88;5036843;28;1103;-51
2024/03/05 07:16:54;;;;;;;;;;;;;;;16.60;49.19;100370.78;5038228;28;1139;-52
2024/03/05 07:19:20;;;;;;;;;;;;;;;16.40;48.54;100360.75;5037395;28;1076;-53
2024/03/05 07:21:47;;;;;;;;;;;;;;;16.94;49.47;100366.47;5024576;28;1974;-52
2024/03/05 07:24:12;;;;;;;;;;;;;;;16.47;49.53;100365.13;5037464;28;1039;-54
2024/03/05 07:26:38;;;;;;;;;;;;;;;16.38;49.24;100362.13;5036621;28;1091;-54
2024/03/05 07:29:04;;;;;;;;;;;;;;;16.80;49.63;100363.50;5037177;28;1125;-54
2024/03/05 07:31:29;;;;;;;;;;;;;;;16.24;49.82;100361.91;5034170;28;1103;-53
2024/03/05 07:33:55;;;;;;;;;;;;;;;16.11;48.68;100357.84;5027217;28;2508;-54
2024/03/05 07:36:21;;;;;;;;;;;;;;;16.67;49.37;100359.47;5037319;28;1091;-54
2024/03/05 07:38:46;;;;;;;;;;;;;;;16.57;49.50;100356.81;5036968;28;1016;-55
2024/03/05 07:41:12;;;;;;;;;;;;;;;17.21;49.45;100362.44;5036827;28;1969;-55
2024/03/05 07:43:38;;;;;;;;;;;;;;;18.04;47.87;100356.94;5037173;28;1122;-54
2024/03/05 07:46:03;;;;;;;;;;;;;;;16.91;49.45;100358.81;5033195;28;1076;-54
2024/03/05 07:48:29;;;;;;;;;;;;;;;16.53;49.23;100369.47;5027317;28;1028;-54
2024/03/05 07:50:55;;;;;;;;;;;;;;;16.32;48.63;100364.06;5036595;28;1162;-53
2024/03/05 07:53:23;;;;;;;;;;;;;;;16.32;49.14;100368.75;5036743;28;1016;-54
2024/03/05 07:55:49;;;;;;;;;;;;;;;17.50;48.94;100369.84;5023200;28;1071;-53
2024/03/05 07:58:15;;;;;;;;;;;;;;;16.62;49.83;100369.69;5036859;28;1155;-53
2024/03/05 08:00:40;;;;;;;;;;;;;;;16.39;49.27;100364.59;5037087;28;1070;-54
2024/03/05 08:03:06;;;;;;;;;;;;;;;16.19;48.45;100368.25;5036524;28;1910;-54
2024/03/05 08:05:31;;;;;;;;;;;;;;;17.37;49.21;100366.66;5024775;28;2395;-54
2024/03/05 08:07:57;;;;;;;;;;;;;;;16.57;49.99;100362.31;5036423;28;1129;-53
2024/03/05 08:10:23;;;;;;;;;;;;;;;16.29;49.23;100364.63;5036379;28;1245;-54
2024/03/05 08:12:50;;;;;;;;;;;;;;;16.64;49.66;100367.50;5036813;28;1114;-54
2024/03/05 08:15:15;;;;;;;;;;;;;;;16.99;49.65;100354.66;5035294;28;928;-54
2024/03/05 08:17:45;;;;;;;;;;;;;;;16.63;50.16;100358.41;5036618;28;1115;-54
2024/03/05 08:20:12;;;;;;;;;;;;;;;18.19;47.85;100354.00;5035228;28;1115;-55
2024/03/05 08:22:38;;;;;;;;;;;;;;;17.01;49.86;100353.25;5025800;28;1914;-55
2024/03/05 08:25:13;;;;;;;;;;;;;;;16.66;49.08;100346.03;5033374;28;1087;-56
2024/03/05 08:27:45;;;;;;;;;;;;;;;17.16;49.72;100335.00;5035676;28;1019;-51
2024/03/05 08:30:17;;;;;;;;;;;;;;;16.77;49.71;100340.22;5036323;28;1195;-54
2024/03/05 08:32:43;;;;;;;;;;;;;;;16.35;49.38;100349.78;5036346;28;1067;-54
2024/03/05 08:35:11;;;;;;;;;;;;;;;16.25;48.52;100347.09;5028062;28;2636;-53
2024/03/05 08:37:43;;;;;;;;;;;;;;;16.15;47.80;100345.22;5036122;28;1055;-52
2024/03/05 08:40:15;;;;;;;;;;;;;;;17.21;49.14;100334.97;5036034;28;909;-56
2024/03/05 08:42:44;;;;;;;;;;;;;;;16.58;49.62;100344.75;5036463;28;1985;-55
2024/03/05 08:45:10;;;;;;;;;;;;;;;16.32;48.78;100339.38;5036424;28;1183;-55
2024/03/05 08:47:36;;;;;;;;;;;;;;;17.27;49.24;100339.28;5033865;28;1132;-54
2024/03/05 08:50:02;;;;;;;;;;;;;;;16.73;50.02;100341.06;5025436;28;1043;-54
2024/03/05 08:52:28;;;;;;;;;;;;;;;16.39;49.30;100331.66;5033726;28;1078;-54
2024/03/05 08:54:54;;;;;;;;;;;;;;;16.33;48.73;100332.78;5036137;28;1040;-55
2024/03/05 08:57:19;;;;;;;;;;;;;;;17.32;48.55;100344.75;5031306;28;2068;-54
2024/03/05 08:59:45;;;;;;;;;;;;;;;18.62;45.74;100339.38;5034242;28;1871;-55
2024/03/05 09:02:10;;;;;;;;;;;;;;;17.58;48.41;100347.25;5035344;28;2066;-56
2024/03/05 09:04:36;;;;;;;;;;;;;;;17.34;48.36;100347.19;5022752;28;2136;-54
2024/03/05 09:07:01;;;;;;;;;;;;;;;19.13;44.11;100349.63;5034065;28;1745;-51
2024/03/05 09:09:30;;;;;;;;;;;;;;;14.57;56.20;100347.00;5030047;28;2083;-53
2024/03/05 09:11:56;;;;;;;;;;;;;;;17.94;48.83;100352.38;5035366;28;2008;-54
2024/03/05 09:14:22;;;;;;;;;;;;;;;18.68;46.69;100343.69;5035577;28;2357;-55
2024/03/05 09:16:47;;;;;;;;;;;;;;;17.41;48.74;100351.25;5033146;28;1824;-55
2024/03/05 09:19:15;;;;;;;;;;;;;;;17.08;48.18;100341.91;5025937;28;1793;-54
2024/03/05 09:21:44;;;;;;;;;;;;;;;16.79;47.84;100359.16;5022397;28;2153;-51
2024/03/05 09:24:10;;;;;;;;;;;;;;;16.66;47.43;100351.53;5029202;28;1075;-54
2024/03/05 09:26:36;;;;;;;;;;;;;;;16.49;46.92;100352.72;5038067;28;1119;-54
2024/03/05 09:29:02;;;;;;;;;;;;;;;16.30;46.72;100354.47;5039438;28;926;-51
2024/03/05 09:31:27;;;;;;;;;;;;;;;17.33;48.49;100360.09;5038839;28;1068;-54
2024/03/05 09:33:53;;;;;;;;;;;;;;;16.67;48.90;100366.91;5027770;28;1079;-53
2024/03/05 09:36:19;;;;;;;;;;;;;;;16.51;48.45;100366.16;5038648;28;1159;-54
2024/03/05 09:38:45;;;;;;;;;;;;;;;16.55;48.66;100372.72;5019823;28;1226;-51
2024/03/05 09:41:11;;;;;;;;;;;;;;;17.02;48.94;100363.13;5036091;28;1980;-54
2024/03/05 09:43:40;;;;;;;;;;;;;;;16.51;48.67;100366.16;5037795;28;1103;-52
2024/03/05 09:46:06;;;;;;;;;;;;;;;16.92;49.30;100363.19;5039602;28;1124;-54
2024/03/05 09:48:35;;;;;;;;;;;;;;;16.97;49.36;100365.91;5039164;28;1043;-51
2024/03/05 09:51:00;;;;;;;;;;;;;;;16.50;48.85;100350.81;5037973;28;2928;-51
2024/03/05 09:53:29;;;;;;;;;;;;;;;16.32;48.27;100352.28;5037765;28;907;-54
2024/03/05 09:55:54;;;;;;;;;;;;;;;16.94;49.07;100358.22;5039013;28;1205;-53
2024/03/05 09:58:41;;;;;;;;;;;;;;;17.18;49.22;100350.09;5039039;28;1028;-54
2024/03/05 10:01:07;;;;;;;;;;;;;;;16.60;49.15;100348.00;5038823;28;1918;-52
2024/03/05 10:03:34;;;;;;;;;;;;;;;16.30;48.63;100349.00;5038765;28;1027;-51
2024/03/05 10:06:00;;;;;;;;;;;;;;;17.23;49.05;100343.72;5038787;28;1213;-54
2024/03/05 10:08:25;;;;;;;;;;;;;;;17.22;49.39;100336.59;5038342;28;1186;-54
2024/03/05 10:11:00;;;;;;;;;;;;;;;16.57;49.17;100334.84;5038880;28;1111;-54
2024/03/05 10:13:32;;;;;;;;;;;;;;;16.40;48.43;100327.81;5038411;28;1119;-53
2024/03/05 10:16:27;;;;;;;;;;;;;;;16.21;47.51;100332.31;5030964;28;1043;-51
2024/03/05 10:18:53;;;;;;;;;;;;;;;17.50;48.46;100326.72;5023874;28;1199;-54
2024/03/05 10:21:22;;;;;;;;;;;;;;;16.66;49.26;100329.56;5038397;28;2498;-55
2024/03/05 10:23:49;;;;;;;;;;;;;;;16.58;49.78;100328.28;5038401;28;1043;-57
2024/03/05 10:26:18;;;;;;;;;;;;;;;17.03;49.34;100314.50;5037125;28;1182;-55
2024/03/05 10:28:45;;;;;;;;;;;;;;;16.51;49.09;100323.09;5037201;28;1143;-57
2024/03/05 10:31:11;;;;;;;;;;;;;;;16.28;48.26;100318.28;5019526;28;1105;-55
2024/03/05 10:33:37;;;;;;;;;;;;;;;16.38;48.79;100307.25;5060931;28;1111;-53
2024/03/05 10:36:03;;;;;;;;;;;;;;;17.00;49.03;100302.16;5037432;28;996;-55
2024/03/05 10:38:28;;;;;;;;;;;;;;;16.43;48.97;100299.00;5036602;28;1047;-53
2024/03/05 10:40:55;;;;;;;;;;;;;;;16.77;49.03;100298.19;5032428;28;1980;-55
2024/03/05 10:43:21;;;;;;;;;;;;;;;16.70;49.68;100293.03;5037723;28;1178;-56
2024/03/05 10:45:47;;;;;;;;;;;;;;;16.34;49.01;100287.81;5037058;28;1179;-55
2024/03/05 10:48:14;;;;;;;;;;;;;;;16.23;48.40;100286.22;5031960;28;1145;-54
2024/03/05 10:50:40;;;;;;;;;;;;;;;17.06;48.90;100290.00;5030290;28;1213;-55
2024/03/05 10:53:07;;;;;;;;;;;;;;;16.67;49.28;100288.09;5036032;28;1101;-57
2024/03/05 10:55:34;;;;;;;;;;;;;;;16.36;48.94;100284.78;5037948;28;1055;-56
2024/03/05 11:00:37;;;;;;;;;;;;;;;16.71;48.77;100286.44;5037816;28;1071;-55
2024/03/05 11:03:09;;;;;;;;;;;;;;;16.38;48.40;100272.41;5037551;28;1976;-54
2024/03/05 11:05:40;;;;;;;;;;;;;;;16.20;48.15;100273.03;5034958;28;1051;-56
2024/03/05 11:08:07;;;;;;;;;;;;;;;16.72;49.38;100277.09;5027807;28;1126;-56
2024/03/05 11:10:32;;;;;;;;;;;;;;;16.89;49.11;100278.66;5037128;28;1091;-53
2024/03/05 11:12:58;;;;;;;;;;;;;;;18.32;47.43;100269.06;5033230;28;1164;-56
2024/03/05 11:15:23;;;;;;;;;;;;;;;17.22;49.10;100276.13;5037471;28;1048;-54
2024/03/05 11:17:49;;;;;;;;;;;;;;;16.73;49.28;100269.66;5034986;28;942;-54
2024/03/05 11:20:33;;;;;;;;;;;;;;;16.51;48.69;100267.34;5025185;28;1115;-56
2024/03/05 11:22:59;;;;;;;;;;;;;;;16.89;49.30;100270.41;5021499;28;1914;-54
2024/03/05 11:25:29;;;;;;;;;;;;;;;16.53;48.55;100265.16;5058869;28;1414;-52
2024/03/05 11:27:56;;;;;;;;;;;;;;;16.67;48.62;100271.63;5030463;28;1118;-48
2024/03/05 11:30:22;;;;;;;;;;;;;;;17.45;48.81;100267.09;5023498;28;1038;-51
2024/03/05 11:32:50;;;;;;;;;;;;;;;16.69;49.46;100266.69;5028464;28;1024;-53
2024/03/05 11:35:18;;;;;;;;;;;;;;;16.41;48.64;100266.34;5032790;28;1033;-50
2024/03/05 11:37:50;;;;;;;;;;;;;;;17.22;49.22;100265.97;5037600;28;1099;-51
2024/03/05 11:40:16;;;;;;;;;;;;;;;16.73;49.33;100264.19;5036780;28;1429;-53
2024/03/05 11:42:47;;;;;;;;;;;;;;;16.42;48.64;100268.00;5036906;28;1955;-51
2024/03/05 11:45:31;;;;;;;;;;;;;;;17.04;49.26;100263.94;5019162;28;1162;-49
2024/03/05 11:47:58;;;;;;;;;;;;;;;16.51;48.93;100267.34;5018038;28;1167;-54
2024/03/05 11:50:24;;;;;;;;;;;;;;;16.38;48.58;100264.19;5036538;28;1130;-53
2024/03/05 11:52:49;;;;;;;;;;;;;;;17.53;48.27;100264.81;5035982;28;1059;-53
2024/03/05 11:55:23;;;;;;;;;;;;;;;16.71;49.12;100260.91;5048899;28;1387;-55
2024/03/05 11:57:58;;;;;;;;;;;;;;;16.66;49.72;100255.44;5064343;28;1068;-53
2024/03/05 12:00:26;;;;;;;;;;;;;;;17.29;48.80;100257.38;5026840;28;1051;-55
2024/03/05 12:02:52;;;;;;;;;;;;;;;16.60;49.27;100260.97;5033515;28;1914;-49
2024/03/05 12:05:18;;;;;;;;;;;;;;;16.44;48.47;100259.47;5034798;28;1051;-55
2024/03/05 12:08:07;;;;;;;;;;;;;;;17.15;48.92;100261.91;5033826;28;1118;-53
2024/03/05 12:10:35;;;;;;;;;;;;;;;16.79;49.77;100251.22;5035968;28;1325;-53
2024/03/05 12:13:00;;;;;;;;;;;;;;;18.36;47.40;100250.84;5030551;28;1329;-49
2024/03/05 12:15:28;;;;;;;;;;;;;;;17.57;49.11;100249.38;5036479;28;1148;-54
2024/03/05 12:17:53;;;;;;;;;;;;;;;16.99;49.05;100248.34;5034026;28;1144;-53
2024/03/05 12:20:19;;;;;;;;;;;;;;;16.77;48.31;100241.38;5036516;28;1102;-49
2024/03/05 12:22:51;;;;;;;;;;;;;;;17.64;48.74;100240.78;5036092;28;1906;-54
2024/03/05 12:25:18;;;;;;;;;;;;;;;16.91;48.87;100248.97;5025337;28;1159;-54
2024/03/05 12:27:49;;;;;;;;;;;;;;;16.69;47.97;100241.16;5034167;28;1091;-55
2024/03/05 12:30:15;;;;;;;;;;;;;;;16.35;47.76;100248.25;5068595;28;886;-56
2024/03/05 12:32:48;;;;;;;;;;;;;;;17.30;48.93;100253.53;5036561;28;1024;-55
2024/03/05 12:35:14;;;;;;;;;;;;;;;16.63;49.00;100253.28;5023645;28;1086;-53
2024/03/05 12:37:40;;;;;;;;;;;;;;;16.49;48.02;100256.66;5036083;28;1120;-54
2024/03/05 12:40:08;;;;;;;;;;;;;;;17.61;48.46;100256.75;5023588;28;1182;-56
2024/03/05 12:42:34;;;;;;;;;;;;;;;17.11;49.44;100253.47;5032919;28;1918;-54
2024/03/05 12:45:06;;;;;;;;;;;;;;;16.67;49.10;100263.41;5036307;28;1055;-53
2024/03/05 12:47:31;;;;;;;;;;;;;;;16.93;49.83;100264.03;5016505;28;1068;-55
2024/03/05 12:49:59;;;;;;;;;;;;;;;17.44;49.08;100259.16;5017192;28;1152;-54
2024/03/05 12:52:25;;;;;;;;;;;;;;;16.82;49.33;100250.66;5036273;28;996;-53